KOSC/OSC METAR and TAF weather

Enter ICAO airport designator
Station Type Date Time Source
KOSC METAR 2021/10/24 21:15 UTC NOAA

KOSC 242115Z AUTO 03007KT 10SM SCT044 SCT050 BKN065 11/03 A3001 RMK AO2 T01050034


Station Type Date Time Source
KOSC Decoded METAR 2021/10/24 21:15 UTC NOAA

Oscoda, Oscoda-Wurtsmith Airport, MI, United States (KOSC) 44-27N 083-22W
Oct 24, 2021 - 05:15 PM EDT / 2021.10.24 2115 UTC
Wind: from the NNE (030 degrees) at 8 MPH (7 KT):0
Visibility: 10 mile(s):0
Sky conditions: mostly cloudy
Temperature: 50.9 F (10.5 C)
Dew Point: 38.1 F (3.4 C)
Relative Humidity: 61%
Pressure (altimeter): 30.01 in. Hg (1016 hPa)
ob: KOSC 242115Z AUTO 03007KT 10SM SCT044 SCT050 BKN065 11/03 A3001 RMK AO2 T01050034
cycle: 21

Station Type Date Time Source
KOSC TAF UTC NOAA

Error!

Example: see airport list